Time;durP1;ratioP1;P1;durP2;ratioP2;P2;SDS_P1;SDS_P2;PMS_P1;PMS_P2;Temp;Humidity;BMP_temperature;BMP_pressure;BME280_temperature;BME280_humidity;BME280_pressure;Samples;Min_cycle;Max_cycle;Signal;HPM_P1;HPM_P2
2022/09/10 00:01:58;;;;;;;14.10;11.95;;;;;;;17.00;69.50;100631.92;1677415;83;21482;-73
2022/09/10 00:04:43;;;;;;;13.28;11.95;;;;;;;17.00;69.53;100633.22;1679287;83;21100;-73
2022/09/10 00:07:30;;;;;;;14.35;12.07;;;;;;;16.99;69.59;100634.98;1677039;83;21117;-73
2022/09/10 00:10:17;;;;;;;12.05;10.70;;;;;;;17.00;69.66;100640.60;1678889;83;21396;-73
2022/09/10 00:13:01;;;;;;;;;;;;;;;16.99;69.68;100645.44;1682282;83;21071;-73
2022/09/10 00:15:50;;;;;;;11.20;10.03;;;;;;;16.98;70.09;100637.66;1657818;83;20221;-73
2022/09/10 00:18:37;;;;;;;12.55;10.72;;;;;;;16.97;69.76;100635.51;1679116;83;22035;-73
2022/09/10 00:21:23;;;;;;;13.40;11.25;;;;;;;16.98;69.81;100635.05;1678439;83;20920;-73
2022/09/10 00:24:07;;;;;;;13.75;10.93;;;;;;;16.98;69.88;100629.37;1681814;83;21357;-73
2022/09/10 00:26:53;;;;;;;11.43;10.40;;;;;;;16.99;69.91;100631.07;1679944;83;21327;-73
2022/09/10 00:29:38;;;;;;;12.25;10.68;;;;;;;16.99;69.96;100621.08;1678765;83;21761;-73
2022/09/10 00:32:23;;;;;;;12.73;11.43;;;;;;;16.99;70.01;100623.23;1681299;83;21591;-73
2022/09/10 00:35:08;;;;;;;13.43;11.00;;;;;;;17.01;70.00;100616.64;1681361;84;21108;-73
2022/09/10 00:37:53;;;;;;;11.60;10.28;;;;;;;16.99;70.07;100614.55;1650047;85;21103;-73
2022/09/10 00:40:40;;;;;;;11.53;10.30;;;;;;;16.99;70.13;100614.55;1632894;87;21086;-73
2022/09/10 00:43:25;;;;;;;12.53;9.73;;;;;;;17.00;70.17;100622.31;1650914;85;21538;-73
2022/09/10 00:46:10;;;;;;;12.30;9.88;;;;;;;16.98;70.26;100616.31;1650260;85;21143;-73
2022/09/10 00:48:58;;;;;;;10.75;9.60;;;;;;;16.99;70.30;100621.92;1650155;85;21096;-73
2022/09/10 00:51:45;;;;;;;11.70;10.10;;;;;;;16.96;70.40;100612.91;1661635;84;21049;-73
2022/09/10 00:54:33;;;;;;;10.75;9.23;;;;;;;16.91;70.54;100608.80;1668607;84;21071;-73
2022/09/10 00:57:21;;;;;;;10.60;8.93;;;;;;;16.89;70.67;100615.39;1670375;83;21563;-73
2022/09/10 01:00:10;;;;;;;9.95;8.73;;;;;;;16.89;70.85;100615.39;1670366;84;21760;-73
2022/09/10 01:02:55;;;;;;;11.43;8.75;;;;;;;16.92;70.74;100611.80;1670214;84;21072;-73
2022/09/10 01:05:44;;;;;;;8.98;8.10;;;;;;;16.93;70.80;100620.88;1654575;84;21091;-73
2022/09/10 01:08:30;;;;;;;10.13;9.05;;;;;;;16.94;70.84;100615.20;1657129;84;21100;-73
2022/09/10 01:11:55;;;;;;;12.35;8.90;;;;;;;16.97;70.87;100625.06;1647303;85;21067;-73
2022/09/10 01:15:06;;;;;;;9.93;7.37;;;;;;;17.00;70.87;100631.46;1692185;83;21054;-73
2022/09/10 01:17:59;;;;;;;10.45;8.58;;;;;;;17.04;70.93;100621.73;1707156;83;21033;-73
2022/09/10 01:21:13;;;;;;;9.55;8.48;;;;;;;17.08;70.91;100616.31;1649891;85;21099;-73
2022/09/10 01:24:31;;;;;;;8.95;8.05;;;;;;;17.11;70.95;100619.25;1692179;83;21125;-73
2022/09/10 01:27:37;;;;;;;9.50;8.28;;;;;;;17.13;71.02;100616.12;1643122;85;21550;-73
2022/09/10 01:30:30;;;;;;;11.80;9.18;;;;;;;17.14;71.06;100604.30;1688945;83;21090;-73
2022/09/10 01:33:36;;;;;;;9.65;8.68;;;;;;;17.00;71.09;100577.06;1645726;85;21374;-73
2022/09/10 01:36:24;;;;;;;8.23;7.42;;;;;;;17.15;71.16;100604.69;1680359;83;21050;-73
2022/09/10 01:39:10;;;;;;;9.50;8.30;;;;;;;17.16;71.16;100604.19;1667483;85;21094;-73
2022/09/10 01:41:55;;;;;;;9.67;8.73;;;;;;;17.17;71.25;100600.66;1692667;83;21609;-73
2022/09/10 01:44:50;;;;;;;9.85;8.33;;;;;;;17.15;71.30;100599.45;1661949;85;21062;-73
2022/09/10 01:47:55;;;;;;;10.98;8.48;;;;;;;17.15;71.34;100599.45;1659467;85;21602;-73
2022/09/10 01:51:22;;;;;;;9.10;8.20;;;;;;;17.16;71.37;100607.66;1676337;83;21050;-73
2022/09/10 01:54:26;;;;;;;8.90;8.00;;;;;;;17.15;71.44;100608.60;1702924;83;21099;-73
2022/09/10 01:57:40;;;;;;;10.10;8.35;;;;;;;17.15;71.48;100632.58;1638750;85;21104;-73
2022/09/10 02:00:26;;;;;;;9.10;8.28;;;;;;;17.14;71.53;100641.33;1665922;83;21106;-73
2022/09/10 02:03:19;;;;;;;10.93;8.53;;;;;;;17.11;71.58;100640.16;1673693;84;21014;-73
2022/09/10 02:06:08;;;;;;;10.40;9.35;;;;;;;17.10;71.63;100634.53;1692418;82;21039;-73
2022/09/10 02:08:56;;;;;;;9.68;8.50;;;;;;;17.11;71.64;100643.61;1692661;83;21093;-73
2022/09/10 02:11:52;;;;;;;9.98;9.10;;;;;;;17.11;71.71;100643.61;1692368;83;21086;-73
2022/09/10 02:14:37;;;;;;;10.48;9.48;;;;;;;17.11;71.74;100647.99;1687597;83;21042;-74
2022/09/10 02:17:29;;;;;;;9.43;8.40;;;;;;;17.12;71.79;100645.77;1692384;83;21030;-74
2022/09/10 02:20:15;;;;;;;11.03;9.58;;;;;;;17.12;71.83;100643.16;1689478;83;21106;-74
2022/09/10 02:23:02;;;;;;;12.65;8.85;;;;;;;17.11;71.86;100654.52;1692450;83;21600;-74
2022/09/10 02:25:49;;;;;;;8.90;7.65;;;;;;;17.10;71.88;100652.83;1692476;83;21046;-74
2022/09/10 02:28:35;;;;;;;7.20;6.00;;;;;;;17.07;71.85;100651.64;1691559;83;21689;-74
2022/09/10 02:31:20;;;;;;;5.55;5.05;;;;;;;17.04;71.89;100653.08;1688115;83;21065;-74
2022/09/10 02:34:05;;;;;;;4.72;4.25;;;;;;;17.00;71.90;100644.52;1696118;82;20983;-74
2022/09/10 02:36:50;;;;;;;5.12;3.37;;;;;;;16.96;71.95;100640.34;1646170;85;21048;-74
2022/09/10 02:39:35;;;;;;;8.33;3.85;;;;;;;16.91;72.00;100638.38;1691110;83;21990;-74
2022/09/10 02:42:21;;;;;;;6.70;3.55;;;;;;;16.90;72.06;100632.76;1602501;88;21513;-74
2022/09/10 02:45:07;;;;;;;4.70;3.47;;;;;;;16.88;72.11;100638.05;1650334;85;20979;-74
2022/09/10 02:47:53;;;;;;;5.55;3.58;;;;;;;16.87;72.13;100635.04;1692484;83;21537;-75
2022/09/10 02:50:39;;;;;;;5.25;3.20;;;;;;;16.84;72.18;100625.17;1658093;85;21011;-74
2022/09/10 02:53:24;;;;;;;8.03;3.63;;;;;;;16.83;72.18;100622.17;1696300;83;21065;-74
2022/09/10 02:56:11;;;;;;;3.37;3.08;;;;;;;16.81;72.20;100626.16;1657958;85;21060;-74
2022/09/10 02:58:56;;;;;;;3.30;3.00;;;;;;;16.78;72.24;100624.97;1692317;83;21022;-74
2022/09/10 03:01:41;;;;;;;7.58;2.75;;;;;;;16.77;72.30;100628.50;1620872;87;21001;-74
2022/09/10 03:04:26;;;;;;;3.62;2.95;;;;;;;16.76;72.30;100621.58;1691350;83;21007;-74
2022/09/10 03:07:15;;;;;;;6.20;2.45;;;;;;;16.75;72.36;100624.25;1657643;85;21115;-74
2022/09/10 03:09:59;;;;;;;4.03;2.87;;;;;;;16.74;72.36;100624.70;1692282;83;21820;-74
2022/09/10 03:12:44;;;;;;;8.25;2.52;;;;;;;16.71;72.40;100624.83;1642403;85;21095;-74
2022/09/10 03:15:29;;;;;;;5.00;2.87;;;;;;;16.72;72.46;100624.38;1692092;83;21102;-74
2022/09/10 03:18:14;;;;;;;6.75;3.15;;;;;;;16.68;72.49;100618.89;1620580;87;21136;-74
2022/09/10 03:21:23;;;;;;;5.85;2.90;;;;;;;16.65;72.54;100619.86;1657599;85;21116;-74
2022/09/10 03:24:10;;;;;;;5.65;2.72;;;;;;;16.66;72.57;100621.56;1686873;83;21451;-74
2022/09/10 03:26:55;;;;;;;;;;;;;;;16.67;72.56;100620.65;1658012;85;21040;-74
2022/09/10 03:29:40;;;;;;;8.90;3.10;;;;;;;16.64;72.87;100622.08;1687549;83;20218;-74
2022/09/10 03:32:25;;;;;;;4.35;2.92;;;;;;;16.52;72.61;100601.23;1691295;83;21513;-74
2022/09/10 03:35:12;;;;;;;3.40;2.80;;;;;;;16.59;72.63;100624.48;1647999;85;21111;-74
2022/09/10 03:37:57;;;;;;;3.72;2.80;;;;;;;16.56;72.72;100626.76;1691805;83;21087;-75
2022/09/10 03:40:42;;;;;;;3.92;3.30;;;;;;;16.55;72.78;100626.36;1689996;83;21033;-74
2022/09/10 03:43:27;;;;;;;3.80;3.15;;;;;;;16.55;72.81;100631.13;1647985;85;21103;-74
2022/09/10 03:46:12;;;;;;;6.30;3.15;;;;;;;16.53;72.84;100636.02;1689136;83;21114;-75
2022/09/10 03:49:01;;;;;;;3.40;3.10;;;;;;;16.46;72.85;100636.72;1639942;85;21047;-75
2022/09/10 03:51:45;;;;;;;6.17;3.50;;;;;;;16.44;72.93;100635.08;1694660;83;20963;-75
2022/09/10 03:54:30;;;;;;;4.00;3.12;;;;;;;16.42;72.99;100637.75;1692196;83;21075;-74
2022/09/10 03:57:15;;;;;;;3.70;3.10;;;;;;;16.42;73.01;100631.22;1692431;83;21582;-73
2022/09/10 04:00:00;;;;;;;3.77;2.85;;;;;;;16.42;73.06;100642.12;1656835;85;21119;-73
2022/09/10 04:02:45;;;;;;;7.10;3.62;;;;;;;16.41;73.10;100639.96;1690070;83;21054;-73
2022/09/10 04:05:32;;;;;;;4.80;3.90;;;;;;;16.43;73.12;100638.59;1651490;85;21509;-73
2022/09/10 04:08:16;;;;;;;4.37;3.62;;;;;;;16.42;73.13;100632.98;1688139;83;21046;-73
2022/09/10 04:11:03;;;;;;;4.80;3.87;;;;;;;16.39;73.21;100639.17;1617204;88;21595;-73
2022/09/10 04:13:47;;;;;;;4.83;3.67;;;;;;;16.36;73.24;100634.08;1600594;88;21069;-73
2022/09/10 04:16:33;;;;;;;4.28;3.15;;;;;;;16.34;73.31;100635.89;1645382;86;21436;-73
2022/09/10 04:19:17;;;;;;;3.87;2.85;;;;;;;16.33;73.31;100636.80;1641316;86;21533;-74
2022/09/10 04:22:03;;;;;;;4.15;3.40;;;;;;;16.30;73.34;100638.23;1685689;83;21401;-74
2022/09/10 04:24:49;;;;;;;4.17;3.40;;;;;;;16.30;73.43;100630.40;1617924;88;32549;-74
2022/09/10 04:27:34;;;;;;;4.83;3.00;;;;;;;16.32;73.47;100636.87;1629468;85;21661;-75
2022/09/10 04:30:19;;;;;;;4.10;3.35;;;;;;;16.35;73.49;100631.52;1644985;86;21064;-75
2022/09/10 04:33:06;;;;;;;3.27;2.98;;;;;;;16.35;73.49;100632.38;1676798;83;21055;-74
2022/09/10 04:35:51;;;;;;;3.55;2.95;;;;;;;16.35;73.54;100636.29;1650564;85;20965;-74
2022/09/10 04:38:39;;;;;;;4.35;3.62;;;;;;;16.35;73.58;100630.22;1687600;83;20995;-74
2022/09/10 04:41:22;;;;;;;;;;;;;;;16.34;73.62;100629.83;1620093;88;21695;-74
2022/09/10 04:44:07;;;;;;;3.83;3.45;;;;;;;16.37;73.93;100631.86;1641701;86;20480;-74
2022/09/10 04:46:52;;;;;;;3.62;3.33;;;;;;;16.39;73.64;100630.50;1685544;83;21114;-74
2022/09/10 04:49:37;;;;;;;3.50;3.20;;;;;;;16.41;73.65;100641.27;1687123;83;21020;-74
2022/09/10 04:52:23;;;;;;;5.65;3.42;;;;;;;16.40;73.70;100634.80;1686311;83;21098;-74
2022/09/10 04:55:09;;;;;;;4.95;3.05;;;;;;;16.39;73.72;100633.95;1686117;83;21526;-74
2022/09/10 04:57:54;;;;;;;3.42;2.92;;;;;;;16.40;73.78;100640.02;1686658;83;26931;-74
2022/09/10 05:00:40;;;;;;;2.87;2.62;;;;;;;16.41;73.78;100637.36;1676781;83;21047;-74
2022/09/10 05:03:25;;;;;;;5.67;2.80;;;;;;;16.42;73.82;100640.36;1686285;83;21113;-74
2022/09/10 05:06:10;;;;;;;3.92;3.30;;;;;;;16.42;73.85;100642.12;1687980;82;21054;-74
2022/09/10 05:08:55;;;;;;;7.15;2.65;;;;;;;16.44;73.87;100642.45;1706333;82;21046;-74
2022/09/10 05:11:41;;;;;;;3.10;2.80;;;;;;;16.45;73.89;100637.63;1712669;80;21637;-74
2022/09/10 05:14:28;;;;;;;2.60;2.35;;;;;;;16.45;73.91;100648.52;1679829;83;21003;-74
2022/09/10 05:17:13;;;;;;;3.30;2.98;;;;;;;16.42;73.95;100642.97;1679715;83;21086;-74
2022/09/10 05:19:58;;;;;;;3.55;2.58;;;;;;;16.40;74.01;100646.09;1675779;83;20975;-74
2022/09/10 05:22:43;;;;;;;3.42;2.87;;;;;;;16.42;74.03;100640.81;1679944;83;21139;-75
2022/09/10 05:25:29;;;;;;;3.52;2.80;;;;;;;16.44;74.05;100639.84;1679160;83;21086;-75
2022/09/10 05:28:15;;;;;;;3.75;3.22;;;;;;;16.44;74.07;100631.16;1677971;83;21039;-75
2022/09/10 05:31:00;;;;;;;6.80;4.00;;;;;;;16.44;74.11;100628.55;1679637;83;21117;-75
2022/09/10 05:33:45;;;;;;;5.45;3.50;;;;;;;16.41;74.12;100633.44;1673844;83;21526;-75
2022/09/10 05:36:33;;;;;;;5.42;3.42;;;;;;;16.36;74.17;100629.31;1678039;83;21035;-75
2022/09/10 05:39:19;;;;;;;4.25;3.95;;;;;;;16.33;74.27;100626.37;1669931;83;21094;-75
2022/09/10 05:42:05;;;;;;;4.28;3.83;;;;;;;16.31;74.34;100630.80;1684311;83;21055;-75
2022/09/10 05:44:50;;;;;;;4.55;4.15;;;;;;;16.32;74.38;100623.36;1674252;83;21561;-75
2022/09/10 05:47:36;;;;;;;5.92;3.42;;;;;;;16.29;74.35;100620.02;1681643;83;21095;-75
2022/09/10 05:50:21;;;;;;;;;;;;;;;16.29;74.42;100623.94;1672201;83;21094;-75
2022/09/10 05:53:06;;;;;;;4.40;4.00;;;;;;;16.31;74.74;100617.75;1680128;83;20603;-75
2022/09/10 05:55:51;;;;;;;7.97;4.60;;;;;;;16.33;74.44;100619.84;1679703;83;21594;-75
2022/09/10 05:58:36;;;;;;;6.50;4.78;;;;;;;16.34;74.46;100622.00;1679926;83;21591;-74
2022/09/10 06:01:22;;;;;;;5.90;4.65;;;;;;;16.32;74.49;100624.67;1679363;83;21417;-74
2022/09/10 06:04:08;;;;;;;5.42;4.92;;;;;;;16.35;74.53;100625.00;1679886;83;20979;-74
2022/09/10 06:06:53;;;;;;;6.17;5.58;;;;;;;16.38;74.54;100625.73;1678935;84;20995;-74
2022/09/10 06:09:38;;;;;;;5.75;5.15;;;;;;;16.40;74.54;100627.83;1680118;83;21129;-74
2022/09/10 06:12:23;;;;;;;6.33;4.70;;;;;;;16.42;74.52;100631.67;1679279;83;21086;-74
2022/09/10 06:15:09;;;;;;;6.17;5.60;;;;;;;16.44;74.55;100629.86;1680201;83;21106;-74
2022/09/10 06:17:55;;;;;;;5.87;5.07;;;;;;;16.43;74.57;100630.31;1681132;83;21024;-75
2022/09/10 06:20:40;;;;;;;5.60;5.10;;;;;;;16.44;74.63;100635.92;1680234;83;21554;-75
2022/09/10 06:23:25;;;;;;;5.87;5.37;;;;;;;16.44;74.68;100632.02;1679777;83;21026;-75
2022/09/10 06:26:15;;;;;;;6.78;5.70;;;;;;;16.47;74.68;100630.59;1677784;83;21053;-75
2022/09/10 06:29:00;;;;;;;5.30;4.80;;;;;;;16.49;74.70;100627.46;1676601;83;21116;-75
2022/09/10 06:31:46;;;;;;;5.55;4.92;;;;;;;16.53;74.71;100628.19;1676202;83;21491;-75
2022/09/10 06:34:31;;;;;;;7.62;5.42;;;;;;;16.57;74.76;100636.75;1680109;83;21079;-75
2022/09/10 06:37:17;;;;;;;7.55;5.35;;;;;;;16.60;74.80;100643.15;1678149;83;21086;-75
2022/09/10 06:40:02;;;;;;;6.50;5.90;;;;;;;16.62;74.83;100644.78;1670377;83;21043;-75
2022/09/10 06:42:47;;;;;;;7.70;6.83;;;;;;;16.64;74.87;100634.25;1679704;83;21082;-75
2022/09/10 06:45:32;;;;;;;7.53;6.55;;;;;;;16.68;74.84;100634.55;1679510;83;21479;-75
2022/09/10 06:48:26;;;;;;;6.50;6.00;;;;;;;16.71;74.86;100623.98;1679932;83;21063;-75
2022/09/10 06:51:12;;;;;;;6.92;6.33;;;;;;;16.74;74.88;100631.23;1679527;83;21086;-75
2022/09/10 06:53:57;;;;;;;7.67;6.87;;;;;;;16.76;74.92;100634.63;1679789;83;21071;-75
2022/09/10 06:56:42;;;;;;;6.83;6.22;;;;;;;16.79;74.98;100637.58;1679941;83;21091;-75
2022/09/10 06:59:27;;;;;;;6.83;6.22;;;;;;;16.80;74.98;100641.89;1705909;83;21672;-75
2022/09/10 07:02:14;;;;;;;7.00;6.50;;;;;;;16.79;75.04;100644.10;1678491;83;21106;-75
2022/09/10 07:04:59;;;;;;;8.28;6.53;;;;;;;16.80;75.13;100651.02;1677930;83;21039;-75
2022/09/10 07:07:45;;;;;;;7.10;6.55;;;;;;;16.80;75.16;100650.57;1693667;83;21452;-75
2022/09/10 07:10:30;;;;;;;7.17;6.47;;;;;;;16.84;75.21;100649.53;1694495;83;21461;-75
2022/09/10 07:13:15;;;;;;;5.90;5.40;;;;;;;16.90;75.26;100653.66;1698713;83;21027;-75
2022/09/10 07:16:01;;;;;;;6.45;5.78;;;;;;;16.87;75.21;100653.33;1699716;83;21046;-75
2022/09/10 07:18:53;;;;;;;7.15;5.25;;;;;;;16.88;75.30;100648.49;1699959;83;21086;-74
2022/09/10 07:21:38;;;;;;;5.55;5.05;;;;;;;16.92;75.39;100647.06;1688454;83;21345;-74
2022/09/10 07:24:23;;;;;;;5.87;5.37;;;;;;;16.98;75.40;100646.80;1700282;83;21089;-74
2022/09/10 07:27:09;;;;;;;6.10;5.60;;;;;;;16.97;75.35;100640.73;1699402;82;21030;-74
2022/09/10 07:29:54;;;;;;;;;;;;;;;16.98;75.39;100641.13;1703393;82;21058;-74
2022/09/10 07:32:39;;;;;;;5.08;4.42;;;;;;;17.03;75.75;100635.70;1700332;83;20132;-74
2022/09/10 07:35:25;;;;;;;4.72;4.33;;;;;;;17.04;75.44;100638.71;1700028;83;21609;-74
2022/09/10 07:38:14;;;;;;;4.62;4.33;;;;;;;17.09;75.50;100639.38;1699977;82;21656;-74
2022/09/10 07:41:00;;;;;;;4.58;4.28;;;;;;;17.15;75.50;100637.34;1683523;83;21094;-74
2022/09/10 07:43:45;;;;;;;5.67;5.20;;;;;;;17.17;75.49;100631.56;1700334;83;21052;-74
2022/09/10 07:46:30;;;;;;;4.65;4.35;;;;;;;17.23;75.51;100634.38;1695076;82;21255;-74
2022/09/10 07:49:15;;;;;;;4.55;4.17;;;;;;;17.30;75.52;100633.65;1700129;83;21493;-74
2022/09/10 07:52:00;;;;;;;4.72;4.33;;;;;;;17.31;75.43;100630.97;1699945;83;21616;-74
2022/09/10 07:54:45;;;;;;;4.25;3.85;;;;;;;17.34;75.49;100632.14;1695990;83;21109;-74
2022/09/10 07:57:30;;;;;;;4.65;4.25;;;;;;;17.38;75.49;100636.33;1700026;83;21600;-74
2022/09/10 08:00:17;;;;;;;4.47;3.85;;;;;;;17.41;75.51;100635.34;1684967;84;21533;-74
2022/09/10 08:03:02;;;;;;;4.15;3.77;;;;;;;17.42;75.47;100633.97;1699538;83;21077;-74
2022/09/10 08:05:48;;;;;;;4.05;3.85;;;;;;;17.42;75.49;100633.12;1685530;83;21097;-74
2022/09/10 08:08:36;;;;;;;5.40;4.03;;;;;;;17.45;75.53;100635.60;1680541;83;21602;-74
2022/09/10 08:11:22;;;;;;;3.77;3.58;;;;;;;17.48;75.60;100632.39;1679638;83;21079;-74
2022/09/10 08:14:08;;;;;;;4.40;4.00;;;;;;;17.54;75.57;100633.43;1679978;83;21110;-74
2022/09/10 08:16:53;;;;;;;5.25;3.65;;;;;;;17.59;75.54;100638.45;1679837;83;21027;-74
2022/09/10 08:19:38;;;;;;;4.85;3.65;;;;;;;17.65;75.59;100636.91;1679329;83;21070;-74
2022/09/10 08:22:23;;;;;;;4.28;3.90;;;;;;;17.73;75.53;100640.00;1679942;83;21059;-74
2022/09/10 08:25:09;;;;;;;6.12;3.35;;;;;;;17.77;75.57;100632.86;1679843;83;21054;-74
2022/09/10 08:27:54;;;;;;;3.50;3.30;;;;;;;17.82;75.52;100636.97;1676368;83;21533;-74
2022/09/10 08:30:40;;;;;;;2.65;2.50;;;;;;;17.86;75.61;100635.91;1677288;83;20998;-74
2022/09/10 08:33:26;;;;;;;2.80;2.60;;;;;;;17.90;75.50;100636.62;1675316;83;21099;-74
2022/09/10 08:36:12;;;;;;;3.65;2.58;;;;;;;17.91;75.51;100634.39;1677837;83;22104;-74
2022/09/10 08:38:57;;;;;;;2.20;2.10;;;;;;;17.83;75.52;100609.89;1680128;83;21527;-74
2022/09/10 08:41:54;;;;;;;2.85;2.60;;;;;;;17.97;75.55;100632.80;1679781;83;21286;-74
2022/09/10 08:44:50;;;;;;;2.60;2.35;;;;;;;18.03;75.62;100632.52;1678145;83;20991;-74
2022/09/10 08:47:58;;;;;;;2.00;1.50;;;;;;;18.11;75.58;100633.02;1678872;83;21051;-74
2022/09/10 08:50:54;;;;;;;6.40;2.00;;;;;;;18.16;75.45;100629.72;1676804;83;21114;-74
2022/09/10 08:53:58;;;;;;;2.12;1.92;;;;;;;18.20;75.42;100639.55;1677634;83;22436;-74
2022/09/10 08:56:45;;;;;;;1.92;1.80;;;;;;;18.21;75.41;100638.63;1678897;83;20979;-74
2022/09/10 08:59:39;;;;;;;2.40;2.20;;;;;;;18.25;75.33;100638.03;1675052;83;21047;-74
2022/09/10 09:02:55;;;;;;;2.85;2.08;;;;;;;18.24;75.35;100630.64;1671711;83;21076;-74
2022/09/10 09:05:54;;;;;;;3.87;2.37;;;;;;;18.25;75.44;100639.34;1679941;83;21078;-74
2022/09/10 09:08:47;;;;;;;1.95;1.85;;;;;;;18.28;75.41;100634.80;1677584;83;21094;-74
2022/09/10 09:12:09;;;;;;;3.58;1.90;;;;;;;18.35;75.47;100636.67;1679724;83;21031;-74
2022/09/10 09:15:09;;;;;;;2.20;2.08;;;;;;;18.41;75.41;100633.30;1677565;83;21031;-74
2022/09/10 09:18:11;;;;;;;2.42;2.17;;;;;;;18.45;75.40;100637.47;1665148;83;21149;-74
2022/09/10 09:21:01;;;;;;;6.30;2.70;;;;;;;18.51;75.34;100638.95;1678121;83;21649;-74
2022/09/10 09:23:53;;;;;;;2.67;2.47;;;;;;;18.51;75.26;100634.55;1679225;83;21126;-74
2022/09/10 09:26:39;;;;;;;1.90;1.40;;;;;;;18.52;75.32;100635.41;1679314;83;22425;-74
2022/09/10 09:29:32;;;;;;;1.15;1.00;;;;;;;18.51;75.28;100635.87;1708275;82;21045;-74
2022/09/10 09:32:19;;;;;;;1.45;1.30;;;;;;;18.52;75.28;100638.02;1687542;83;21474;-74
2022/09/10 09:35:25;;;;;;;2.80;1.20;;;;;;;18.51;75.20;100636.33;1710845;82;21090;-74
2022/09/10 09:38:22;;;;;;;5.50;1.20;;;;;;;18.53;75.27;100635.80;1709434;82;21090;-74
2022/09/10 09:41:25;;;;;;;1.15;1.05;;;;;;;18.60;75.30;100637.66;1680287;83;22193;-74
2022/09/10 09:44:18;;;;;;;1.15;1.05;;;;;;;18.65;75.26;100631.77;1599121;83;5001409;-74
2022/09/10 09:47:03;;;;;;;1.70;0.98;;;;;;;18.70;75.26;100631.08;1679979;83;21039;-74
2022/09/10 09:49:49;;;;;;;0.60;0.57;;;;;;;18.76;75.22;100632.90;1660583;83;21122;-74
2022/09/10 09:52:34;;;;;;;1.00;0.72;;;;;;;18.78;75.08;100634.98;1680083;83;21542;-74
2022/09/10 09:55:42;;;;;;;2.75;0.80;;;;;;;18.83;75.09;100636.06;1680089;83;21110;-74
2022/09/10 09:58:33;;;;;;;2.47;1.00;;;;;;;18.83;75.09;100636.06;1679835;83;21099;-74
2022/09/10 10:01:24;;;;;;;0.98;0.88;;;;;;;18.87;75.12;100633.67;1679101;83;21142;-74
2022/09/10 10:04:23;;;;;;;4.25;1.02;;;;;;;18.90;75.09;100633.98;1677142;83;21542;-74
2022/09/10 10:07:09;;;;;;;2.45;0.70;;;;;;;18.93;75.01;100632.06;1658577;84;21029;-74
2022/09/10 10:09:54;;;;;;;0.80;0.80;;;;;;;18.95;74.96;100630.22;1674819;83;21002;-74
2022/09/10 10:12:44;;;;;;;1.57;0.98;;;;;;;18.98;74.91;100631.83;1679699;83;21055;-74
2022/09/10 10:15:40;;;;;;;0.98;0.90;;;;;;;18.98;74.94;100628.75;1672715;83;21067;-74
2022/09/10 10:18:33;;;;;;;1.85;1.10;;;;;;;19.00;74.93;100628.21;1670137;83;21066;-74
2022/09/10 10:21:31;;;;;;;1.20;1.10;;;;;;;19.03;74.89;100631.14;1680075;83;21483;-74
2022/09/10 10:24:33;;;;;;;1.85;1.67;;;;;;;19.01;74.84;100631.22;1672128;83;21384;-74
2022/09/10 10:27:35;;;;;;;1.05;1.00;;;;;;;19.02;74.86;100636.00;1663266;84;20938;-74
2022/09/10 10:30:23;;;;;;;1.50;1.30;;;;;;;18.99;74.80;100633.06;1679374;83;21050;-74
2022/09/10 10:33:14;;;;;;;3.60;1.40;;;;;;;18.98;74.76;100639.23;1665351;83;21051;-74
2022/09/10 10:36:16;;;;;;;1.30;1.20;;;;;;;18.93;74.75;100629.91;1677776;83;21105;-74
2022/09/10 10:39:23;;;;;;;1.92;1.37;;;;;;;18.88;74.71;100629.28;1669708;83;21486;-74
2022/09/10 10:42:46;;;;;;;1.90;1.80;;;;;;;18.84;74.72;100634.67;1674251;83;21055;-75
2022/09/10 10:45:47;;;;;;;1.40;1.30;;;;;;;18.82;74.72;100633.06;1677141;83;21051;-75
2022/09/10 10:48:43;;;;;;;1.60;1.50;;;;;;;18.79;74.71;100634.06;1679915;83;21083;-75
2022/09/10 10:51:51;;;;;;;5.08;1.22;;;;;;;18.77;74.70;100638.98;1667523;83;21101;-75
2022/09/10 10:55:03;;;;;;;2.08;1.65;;;;;;;18.74;74.66;100646.53;1673500;83;21066;-75
2022/09/10 10:58:21;;;;;;;2.50;1.30;;;;;;;18.72;74.63;100644.45;1676036;83;21114;-75
2022/09/10 11:01:20;;;;;;;1.42;1.20;;;;;;;18.68;74.58;100649.48;1674165;83;21101;-75
2022/09/10 11:04:38;;;;;;;4.78;1.37;;;;;;;18.68;74.61;100646.87;1680841;83;21055;-75
2022/09/10 11:07:28;;;;;;;5.30;1.10;;;;;;;18.70;74.62;100650.72;1676605;83;21397;-75
2022/09/10 11:10:35;;;;;;;1.12;1.10;;;;;;;18.71;74.55;100640.63;1680072;83;21047;-75
2022/09/10 11:13:26;;;;;;;1.40;1.30;;;;;;;18.73;74.56;100650.54;1670143;83;21080;-75
2022/09/10 11:16:34;;;;;;;3.10;1.30;;;;;;;18.75;74.54;100641.69;1676417;83;21106;-75
2022/09/10 11:19:30;;;;;;;1.40;1.30;;;;;;;18.80;74.58;100644.08;1678028;83;21051;-75
2022/09/10 11:22:29;;;;;;;2.70;1.60;;;;;;;18.87;74.54;100643.31;1677546;83;21055;-75
2022/09/10 11:25:23;;;;;;;1.20;1.20;;;;;;;18.91;74.52;100642.23;1677255;83;21557;-75
2022/09/10 11:28:19;;;;;;;2.52;1.25;;;;;;;18.98;74.51;100645.78;1676986;83;21065;-75
2022/09/10 11:31:12;;;;;;;1.75;1.65;;;;;;;19.04;74.51;100638.92;1710502;82;21082;-75
2022/09/10 11:34:05;;;;;;;2.20;1.37;;;;;;;19.09;74.50;100638.23;1711976;82;21082;-75
2022/09/10 11:36:58;;;;;;;2.72;1.40;;;;;;;19.15;74.47;100644.47;1679996;83;21039;-75
2022/09/10 11:39:51;;;;;;;1.52;1.32;;;;;;;19.18;74.50;100641.70;1679727;83;21055;-75
2022/09/10 11:42:44;;;;;;;1.15;1.15;;;;;;;19.23;74.43;100628.81;1679638;83;21078;-75
2022/09/10 11:45:46;;;;;;;1.45;1.35;;;;;;;19.24;74.44;100632.64;1679901;83;21134;-75
2022/09/10 11:48:46;;;;;;;1.45;1.30;;;;;;;19.25;74.40;100625.62;1679495;83;21091;-75
2022/09/10 11:51:36;;;;;;;1.27;1.17;;;;;;;19.24;74.36;100622.61;1670335;83;21082;-75
2022/09/10 11:54:31;;;;;;;2.60;1.30;;;;;;;19.25;74.35;100623.84;1680182;83;21297;-75
2022/09/10 11:57:23;;;;;;;1.12;1.02;;;;;;;19.26;74.32;100618.14;1539697;84;5000988;-75
2022/09/10 12:00:19;;;;;;;1.15;1.10;;;;;;;19.25;74.26;100619.06;1671790;84;21141;-75
2022/09/10 12:03:12;;;;;;;1.47;1.37;;;;;;;19.22;74.26;100616.63;1669869;84;21124;-75
2022/09/10 12:06:15;;;;;;;7.53;1.98;;;;;;;19.22;74.26;100615.32;1655835;84;21105;-75
2022/09/10 12:09:29;;;;;;;1.25;1.15;;;;;;;19.19;74.22;100612.39;1678343;84;20957;-75
2022/09/10 12:12:28;;;;;;;1.37;1.27;;;;;;;19.15;74.24;100612.17;1654231;85;21640;-75
2022/09/10 12:15:23;;;;;;;3.17;1.22;;;;;;;19.14;74.18;100616.56;1648719;85;21458;-75
2022/09/10 12:18:18;;;;;;;1.32;1.22;;;;;;;19.11;74.17;100607.55;1664761;85;21536;-75
2022/09/10 12:21:11;;;;;;;2.08;1.05;;;;;;;19.12;74.30;100606.62;1669815;85;20968;-75
2022/09/10 12:23:56;;;;;;;1.05;1.00;;;;;;;19.17;74.22;100605.08;1653884;85;20920;-75
2022/09/10 12:26:44;;;;;;;2.05;1.10;;;;;;;19.22;74.24;100604.38;1665019;84;20965;-75
2022/09/10 12:29:35;;;;;;;0.78;0.75;;;;;;;19.26;74.08;100606.34;1660257;84;20966;-75
2022/09/10 12:32:27;;;;;;;2.45;0.70;;;;;;;19.26;74.08;100605.88;1652359;84;20994;-75
2022/09/10 12:35:36;;;;;;;0.78;0.60;;;;;;;19.20;73.91;100602.30;1665289;84;21425;-75
2022/09/10 12:38:45;;;;;;;1.60;0.70;;;;;;;19.25;74.03;100599.41;1544632;85;9999710;-75
2022/09/10 12:41:35;;;;;;;0.80;0.70;;;;;;;19.21;73.92;100593.50;1648049;85;20963;-75
2022/09/10 12:44:33;;;;;;;1.55;0.80;;;;;;;19.23;73.95;100591.65;1691303;83;20959;-75
2022/09/10 12:47:42;;;;;;;0.60;0.50;;;;;;;19.15;73.82;100592.05;1691910;83;20970;-75
2022/09/10 12:50:32;;;;;;;2.27;0.45;;;;;;;19.15;73.87;100595.98;1678145;83;21331;-75
2022/09/10 12:53:31;;;;;;;1.57;0.50;;;;;;;19.13;73.86;100589.97;1692104;83;20911;-75
2022/09/10 12:56:51;;;;;;;0.53;0.45;;;;;;;19.14;73.81;100590.35;1692035;83;20923;-75
2022/09/10 13:00:02;;;;;;;0.57;0.40;;;;;;;19.17;73.79;100586.26;1681921;83;21617;-75
2022/09/10 13:03:14;;;;;;;1.98;0.60;;;;;;;19.08;73.52;100580.19;1688549;83;21114;-75
2022/09/10 13:06:03;;;;;;;0.98;0.72;;;;;;;19.08;73.63;100579.33;1686256;83;21130;-75
2022/09/10 13:08:49;;;;;;;1.42;0.70;;;;;;;19.07;73.45;100578.95;1681377;83;21038;-75
2022/09/10 13:11:35;;;;;;;1.50;0.70;;;;;;;19.03;73.44;100576.95;1700112;83;21296;-75
2022/09/10 13:14:29;;;;;;;1.95;1.32;;;;;;;19.01;73.48;100576.18;1695725;83;21129;-75